sensor_id;sensor_type;location;lat;lon;timestamp;temperature;humidity
55331;DHT22;58851;42.984;20.336;2022-09-12T00:01:57;333.70;2329.60
55331;DHT22;58851;42.984;20.336;2022-09-12T00:04:23;333.60;2329.60
55331;DHT22;58851;42.984;20.336;2022-09-12T00:06:49;333.50;2329.60
55331;DHT22;58851;42.984;20.336;2022-09-12T00:09:15;333.40;2329.60
55331;DHT22;58851;42.984;20.336;2022-09-12T00:11:44;333.30;2329.60
55331;DHT22;58851;42.984;20.336;2022-09-12T00:14:13;333.20;2329.60
55331;DHT22;58851;42.984;20.336;2022-09-12T00:16:39;333.10;2329.60
55331;DHT22;58851;42.984;20.336;2022-09-12T00:19:07;333.30;2329.60
55331;DHT22;58851;42.984;20.336;2022-09-12T00:21:34;333.40;2329.60
55331;DHT22;58851;42.984;20.336;2022-09-12T00:24:01;333.50;2329.60
55331;DHT22;58851;42.984;20.336;2022-09-12T00:26:27;333.40;2329.60
55331;DHT22;58851;42.984;20.336;2022-09-12T00:28:53;333.30;2329.60
55331;DHT22;58851;42.984;20.336;2022-09-12T00:31:21;333.20;2329.60
55331;DHT22;58851;42.984;20.336;2022-09-12T00:33:52;333.10;2329.60
55331;DHT22;58851;42.984;20.336;2022-09-12T00:36:21;333.10;2329.60
55331;DHT22;58851;42.984;20.336;2022-09-12T00:38:49;333.10;2329.60
55331;DHT22;58851;42.984;20.336;2022-09-12T00:41:18;333.20;2329.60
55331;DHT22;58851;42.984;20.336;2022-09-12T00:43:47;333.30;2329.60
55331;DHT22;58851;42.984;20.336;2022-09-12T00:46:30;333.40;2329.60
55331;DHT22;58851;42.984;20.336;2022-09-12T00:48:59;333.30;2329.60
55331;DHT22;58851;42.984;20.336;2022-09-12T00:51:28;333.20;2329.60
55331;DHT22;58851;42.984;20.336;2022-09-12T00:53:56;333.30;2329.60
55331;DHT22;58851;42.984;20.336;2022-09-12T00:56:23;333.20;2329.60
55331;DHT22;58851;42.984;20.336;2022-09-12T00:59:05;333.10;2329.60
55331;DHT22;58851;42.984;20.336;2022-09-12T01:01:33;333.20;2329.60
55331;DHT22;58851;42.984;20.336;2022-09-12T01:04:00;333.40;2329.60
55331;DHT22;58851;42.984;20.336;2022-09-12T01:06:29;333.30;2329.60
55331;DHT22;58851;42.984;20.336;2022-09-12T01:08:57;333.40;2329.60
55331;DHT22;58851;42.984;20.336;2022-09-12T01:11:24;333.50;2329.60
55331;DHT22;58851;42.984;20.336;2022-09-12T01:13:50;333.50;2329.60
55331;DHT22;58851;42.984;20.336;2022-09-12T01:16:16;333.50;2329.60
55331;DHT22;58851;42.984;20.336;2022-09-12T01:19:07;333.50;2329.60
55331;DHT22;58851;42.984;20.336;2022-09-12T01:21:37;333.50;2329.60
55331;DHT22;58851;42.984;20.336;2022-09-12T01:24:53;333.40;2329.60
55331;DHT22;58851;42.984;20.336;2022-09-12T01:38:26;333.00;2329.60
55331;DHT22;58851;42.984;20.336;2022-09-12T01:44:00;333.00;2329.60
55331;DHT22;58851;42.984;20.336;2022-09-12T01:46:50;333.10;2329.60
55331;DHT22;58851;42.984;20.336;2022-09-12T01:49:25;333.20;2329.60
55331;DHT22;58851;42.984;20.336;2022-09-12T01:52:02;333.20;2329.60
55331;DHT22;58851;42.984;20.336;2022-09-12T01:54:42;333.10;2329.60
55331;DHT22;58851;42.984;20.336;2022-09-12T01:57:15;333.00;2329.60
55331;DHT22;58851;42.984;20.336;2022-09-12T01:59:44;332.90;2329.60
55331;DHT22;58851;42.984;20.336;2022-09-12T02:02:21;333.00;2329.60
55331;DHT22;58851;42.984;20.336;2022-09-12T02:04:56;332.80;2329.60
55331;DHT22;58851;42.984;20.336;2022-09-12T02:07:43;332.80;2329.60
55331;DHT22;58851;42.984;20.336;2022-09-12T02:10:17;332.80;2329.60
55331;DHT22;58851;42.984;20.336;2022-09-12T02:12:56;332.90;2329.60
55331;DHT22;58851;42.984;20.336;2022-09-12T02:15:28;332.90;2329.60
55331;DHT22;58851;42.984;20.336;2022-09-12T02:17:57;333.00;2329.60
55331;DHT22;58851;42.984;20.336;2022-09-12T02:20:28;333.00;2329.60
55331;DHT22;58851;42.984;20.336;2022-09-12T02:22:56;333.00;2329.60
55331;DHT22;58851;42.984;20.336;2022-09-12T02:25:23;332.90;2329.60
55331;DHT22;58851;42.984;20.336;2022-09-12T02:27:58;332.90;2329.60
55331;DHT22;58851;42.984;20.336;2022-09-12T02:30:24;332.80;2329.60
55331;DHT22;58851;42.984;20.336;2022-09-12T02:38:39;308.10;2304.00
55331;DHT22;58851;42.984;20.336;2022-09-12T02:41:09;308.10;2304.00
55331;DHT22;58851;42.984;20.336;2022-09-12T02:43:35;308.10;2304.00
55331;DHT22;58851;42.984;20.336;2022-09-12T02:46:04;332.80;2329.60
55331;DHT22;58851;42.984;20.336;2022-09-12T02:48:34;332.90;2329.60
55331;DHT22;58851;42.984;20.336;2022-09-12T02:51:01;332.80;2329.60
55331;DHT22;58851;42.984;20.336;2022-09-12T02:53:27;332.80;2329.60
55331;DHT22;58851;42.984;20.336;2022-09-12T02:55:53;332.80;2329.60
55331;DHT22;58851;42.984;20.336;2022-09-12T02:58:26;332.80;2329.60
55331;DHT22;58851;42.984;20.336;2022-09-12T03:06:59;307.90;2304.00
55331;DHT22;58851;42.984;20.336;2022-09-12T03:12:24;307.80;2304.00
55331;DHT22;58851;42.984;20.336;2022-09-12T03:24:50;307.70;2304.00
55331;DHT22;58851;42.984;20.336;2022-09-12T03:30:14;307.70;2304.00
55331;DHT22;58851;42.984;20.336;2022-09-12T03:32:48;307.60;2304.00
55331;DHT22;58851;42.984;20.336;2022-09-12T03:35:17;307.80;2304.00
55331;DHT22;58851;42.984;20.336;2022-09-12T03:37:43;307.90;2304.00
55331;DHT22;58851;42.984;20.336;2022-09-12T03:40:09;307.90;2304.00
55331;DHT22;58851;42.984;20.336;2022-09-12T03:42:37;308.00;2304.00
55331;DHT22;58851;42.984;20.336;2022-09-12T03:45:03;308.00;2304.00
55331;DHT22;58851;42.984;20.336;2022-09-12T03:47:30;308.10;2304.00
55331;DHT22;58851;42.984;20.336;2022-09-12T03:49:55;308.10;2304.00
55331;DHT22;58851;42.984;20.336;2022-09-12T03:52:23;308.00;2304.00
55331;DHT22;58851;42.984;20.336;2022-09-12T03:54:49;308.00;2304.00
55331;DHT22;58851;42.984;20.336;2022-09-12T03:57:15;308.00;2304.00
55331;DHT22;58851;42.984;20.336;2022-09-12T03:59:40;308.00;2304.00
55331;DHT22;58851;42.984;20.336;2022-09-12T04:02:06;308.00;2304.00
55331;DHT22;58851;42.984;20.336;2022-09-12T04:04:34;308.00;2304.00
55331;DHT22;58851;42.984;20.336;2022-09-12T04:07:00;308.00;2304.00
55331;DHT22;58851;42.984;20.336;2022-09-12T04:09:25;308.10;2304.00
55331;DHT22;58851;42.984;20.336;2022-09-12T04:11:51;308.10;2304.00
55331;DHT22;58851;42.984;20.336;2022-09-12T04:14:17;308.10;2304.00
55331;DHT22;58851;42.984;20.336;2022-09-12T04:16:44;308.00;2304.00
55331;DHT22;58851;42.984;20.336;2022-09-12T04:19:10;307.90;2304.00
55331;DHT22;58851;42.984;20.336;2022-09-12T04:21:36;307.90;2304.00
55331;DHT22;58851;42.984;20.336;2022-09-12T04:24:04;307.90;2304.00
55331;DHT22;58851;42.984;20.336;2022-09-12T04:26:30;308.00;2304.00
55331;DHT22;58851;42.984;20.336;2022-09-12T04:28:56;308.00;2304.00
55331;DHT22;58851;42.984;20.336;2022-09-12T04:31:23;308.00;2304.00
55331;DHT22;58851;42.984;20.336;2022-09-12T04:33:58;308.00;2304.00
55331;DHT22;58851;42.984;20.336;2022-09-12T04:36:26;308.00;2304.00
55331;DHT22;58851;42.984;20.336;2022-09-12T04:38:52;308.00;2304.00
55331;DHT22;58851;42.984;20.336;2022-09-12T04:41:20;308.10;2304.00
55331;DHT22;58851;42.984;20.336;2022-09-12T04:43:51;308.10;2304.00
55331;DHT22;58851;42.984;20.336;2022-09-12T04:46:18;332.80;2329.60
55331;DHT22;58851;42.984;20.336;2022-09-12T04:48:47;308.10;2304.00
55331;DHT22;58851;42.984;20.336;2022-09-12T04:51:19;332.80;2329.60
55331;DHT22;58851;42.984;20.336;2022-09-12T04:53:51;332.80;2329.60
55331;DHT22;58851;42.984;20.336;2022-09-12T04:56:18;332.90;2329.60
55331;DHT22;58851;42.984;20.336;2022-09-12T04:58:45;333.00;2329.60
55331;DHT22;58851;42.984;20.336;2022-09-12T05:01:14;332.90;2329.60
55331;DHT22;58851;42.984;20.336;2022-09-12T05:03:41;333.00;2329.60
55331;DHT22;58851;42.984;20.336;2022-09-12T05:06:13;333.00;2329.60
55331;DHT22;58851;42.984;20.336;2022-09-12T05:08:39;333.10;2329.60
55331;DHT22;58851;42.984;20.336;2022-09-12T05:11:09;333.00;2329.60
55331;DHT22;58851;42.984;20.336;2022-09-12T05:13:35;333.10;2329.60
55331;DHT22;58851;42.984;20.336;2022-09-12T05:16:02;333.20;2329.60
55331;DHT22;58851;42.984;20.336;2022-09-12T05:18:30;333.20;2329.60
55331;DHT22;58851;42.984;20.336;2022-09-12T05:20:58;333.20;2329.60
55331;DHT22;58851;42.984;20.336;2022-09-12T05:23:26;333.30;2329.60
55331;DHT22;58851;42.984;20.336;2022-09-12T05:25:53;333.30;2329.60
55331;DHT22;58851;42.984;20.336;2022-09-12T05:28:20;333.40;2329.60
55331;DHT22;58851;42.984;20.336;2022-09-12T05:30:47;333.40;2329.60
55331;DHT22;58851;42.984;20.336;2022-09-12T05:33:13;333.50;2329.60
55331;DHT22;58851;42.984;20.336;2022-09-12T05:35:39;333.60;2329.60
55331;DHT22;58851;42.984;20.336;2022-09-12T05:38:06;333.70;2329.60
55331;DHT22;58851;42.984;20.336;2022-09-12T05:40:33;333.70;2329.60
55331;DHT22;58851;42.984;20.336;2022-09-12T05:42:59;333.70;2329.60
55331;DHT22;58851;42.984;20.336;2022-09-12T05:45:25;333.70;2329.60
55331;DHT22;58851;42.984;20.336;2022-09-12T05:47:52;333.70;2329.60
55331;DHT22;58851;42.984;20.336;2022-09-12T05:50:21;333.70;2329.60
55331;DHT22;58851;42.984;20.336;2022-09-12T05:52:47;358.40;2329.60
55331;DHT22;58851;42.984;20.336;2022-09-12T05:55:13;358.50;2329.60
55331;DHT22;58851;42.984;20.336;2022-09-12T05:57:38;358.40;2329.60
55331;DHT22;58851;42.984;20.336;2022-09-12T06:00:05;358.50;2329.60
55331;DHT22;58851;42.984;20.336;2022-09-12T06:02:34;358.60;2329.60
55331;DHT22;58851;42.984;20.336;2022-09-12T06:05:00;358.60;2329.60
55331;DHT22;58851;42.984;20.336;2022-09-12T06:07:26;358.60;2329.60
55331;DHT22;58851;42.984;20.336;2022-09-12T06:09:52;358.70;2329.60
55331;DHT22;58851;42.984;20.336;2022-09-12T06:12:18;358.70;2329.60
55331;DHT22;58851;42.984;20.336;2022-09-12T06:14:43;358.70;2329.60
55331;DHT22;58851;42.984;20.336;2022-09-12T06:17:09;358.70;2329.60
55331;DHT22;58851;42.984;20.336;2022-09-12T06:19:35;358.90;2329.60
55331;DHT22;58851;42.984;20.336;2022-09-12T06:22:01;359.10;2329.60
55331;DHT22;58851;42.984;20.336;2022-09-12T06:24:27;359.10;2329.60
55331;DHT22;58851;42.984;20.336;2022-09-12T06:26:52;359.20;2329.60
55331;DHT22;58851;42.984;20.336;2022-09-12T06:29:18;384.00;2329.60
55331;DHT22;58851;42.984;20.336;2022-09-12T06:31:44;359.30;2329.60
55331;DHT22;58851;42.984;20.336;2022-09-12T06:34:12;359.20;2329.60
55331;DHT22;58851;42.984;20.336;2022-09-12T06:36:44;384.00;2329.60
55331;DHT22;58851;42.984;20.336;2022-09-12T06:39:13;384.20;2329.60
55331;DHT22;58851;42.984;20.336;2022-09-12T06:41:39;384.30;2329.60
55331;DHT22;58851;42.984;20.336;2022-09-12T06:44:04;384.50;2329.60
55331;DHT22;58851;42.984;20.336;2022-09-12T06:46:32;384.50;2329.60
55331;DHT22;58851;42.984;20.336;2022-09-12T06:48:59;384.50;2329.60
55331;DHT22;58851;42.984;20.336;2022-09-12T06:51:27;384.30;2329.60
55331;DHT22;58851;42.984;20.336;2022-09-12T06:53:56;384.50;2329.60
55331;DHT22;58851;42.984;20.336;2022-09-12T06:56:24;384.60;2329.60
55331;DHT22;58851;42.984;20.336;2022-09-12T06:58:51;384.80;2329.60
55331;DHT22;58851;42.984;20.336;2022-09-12T07:01:20;384.70;2329.60
55331;DHT22;58851;42.984;20.336;2022-09-12T07:03:54;384.90;2329.60
55331;DHT22;58851;42.984;20.336;2022-09-12T07:06:22;409.60;2355.20
55331;DHT22;58851;42.984;20.336;2022-09-12T07:08:49;409.60;2355.20
55331;DHT22;58851;42.984;20.336;2022-09-12T07:13:42;409.70;2355.20
55331;DHT22;58851;42.984;20.336;2022-09-12T07:16:09;409.80;2355.20
55331;DHT22;58851;42.984;20.336;2022-09-12T07:18:36;409.90;2355.20
55331;DHT22;58851;42.984;20.336;2022-09-12T07:21:08;410.00;2355.20
55331;DHT22;58851;42.984;20.336;2022-09-12T07:23:34;410.10;2355.20
55331;DHT22;58851;42.984;20.336;2022-09-12T07:26:01;410.30;2355.20
55331;DHT22;58851;42.984;20.336;2022-09-12T07:28:31;410.30;2355.20
55331;DHT22;58851;42.984;20.336;2022-09-12T07:31:03;410.30;2355.20
55331;DHT22;58851;42.984;20.336;2022-09-12T07:33:30;435.20;2355.20
55331;DHT22;58851;42.984;20.336;2022-09-12T07:36:01;435.20;2355.20
55331;DHT22;58851;42.984;20.336;2022-09-12T07:38:28;435.40;2355.20
55331;DHT22;58851;42.984;20.336;2022-09-12T07:40:54;435.30;2355.20
55331;DHT22;58851;42.984;20.336;2022-09-12T07:43:20;435.40;2355.20
55331;DHT22;58851;42.984;20.336;2022-09-12T07:45:46;435.20;2355.20
55331;DHT22;58851;42.984;20.336;2022-09-12T07:48:12;435.30;2355.20
55331;DHT22;58851;42.984;20.336;2022-09-12T07:50:38;435.70;2355.20
55331;DHT22;58851;42.984;20.336;2022-09-12T07:53:04;436.00;2355.20
55331;DHT22;58851;42.984;20.336;2022-09-12T07:55:30;436.00;2355.20
55331;DHT22;58851;42.984;20.336;2022-09-12T07:57:56;460.80;2380.80
55331;DHT22;58851;42.984;20.336;2022-09-12T08:00:23;460.80;2380.80
55331;DHT22;58851;42.984;20.336;2022-09-12T08:02:52;461.00;2380.80
55331;DHT22;58851;42.984;20.336;2022-09-12T08:05:19;461.00;2380.80
55331;DHT22;58851;42.984;20.336;2022-09-12T08:07:46;461.00;2380.80
55331;DHT22;58851;42.984;20.336;2022-09-12T08:10:12;461.10;2380.80
55331;DHT22;58851;42.984;20.336;2022-09-12T08:12:38;461.10;2380.80
55331;DHT22;58851;42.984;20.336;2022-09-12T08:15:04;461.20;2380.80
55331;DHT22;58851;42.984;20.336;2022-09-12T08:17:30;461.30;2380.80
55331;DHT22;58851;42.984;20.336;2022-09-12T08:19:55;461.40;2380.80
55331;DHT22;58851;42.984;20.336;2022-09-12T08:22:21;461.40;2380.80
55331;DHT22;58851;42.984;20.336;2022-09-12T08:24:48;461.50;2380.80
55331;DHT22;58851;42.984;20.336;2022-09-12T08:27:14;461.30;2380.80
55331;DHT22;58851;42.984;20.336;2022-09-12T08:29:40;461.20;2380.80
55331;DHT22;58851;42.984;20.336;2022-09-12T08:32:06;461.00;2380.80
55331;DHT22;58851;42.984;20.336;2022-09-12T08:34:32;461.00;2380.80
55331;DHT22;58851;42.984;20.336;2022-09-12T08:36:58;461.00;2380.80
55331;DHT22;58851;42.984;20.336;2022-09-12T08:39:24;436.00;2355.20
55331;DHT22;58851;42.984;20.336;2022-09-12T08:42:04;436.10;2355.20
55331;DHT22;58851;42.984;20.336;2022-09-12T08:50:10;461.10;2380.80
55331;DHT22;58851;42.984;20.336;2022-09-12T08:55:36;461.10;2380.80
55331;DHT22;58851;42.984;20.336;2022-09-12T08:58:22;461.10;2380.80
55331;DHT22;58851;42.984;20.336;2022-09-12T09:06:20;461.30;2380.80
55331;DHT22;58851;42.984;20.336;2022-09-12T09:11:36;461.40;2380.80
55331;DHT22;58851;42.984;20.336;2022-09-12T09:16:56;461.60;2380.80
55331;DHT22;58851;42.984;20.336;2022-09-12T09:19:30;486.40;2380.80
55331;DHT22;58851;42.984;20.336;2022-09-12T09:22:13;486.40;2380.80
55331;DHT22;58851;42.984;20.336;2022-09-12T09:24:45;486.50;2380.80
55331;DHT22;58851;42.984;20.336;2022-09-12T09:29:44;486.60;2380.80
55331;DHT22;58851;42.984;20.336;2022-09-12T09:32:16;486.60;2380.80
55331;DHT22;58851;42.984;20.336;2022-09-12T09:34:43;486.70;2380.80
55331;DHT22;58851;42.984;20.336;2022-09-12T09:37:19;486.70;2380.80
55331;DHT22;58851;42.984;20.336;2022-09-12T09:42:52;487.00;2380.80
55331;DHT22;58851;42.984;20.336;2022-09-12T09:45:23;487.10;2380.80
55331;DHT22;58851;42.984;20.336;2022-09-12T09:48:20;487.20;2380.80
55331;DHT22;58851;42.984;20.336;2022-09-12T09:50:48;487.30;2380.80
55331;DHT22;58851;42.984;20.336;2022-09-12T09:55:59;512.00;2380.80
55331;DHT22;58851;42.984;20.336;2022-09-12T09:58:31;487.10;2380.80
55331;DHT22;58851;42.984;20.336;2022-09-12T10:01:03;486.90;2380.80
55331;DHT22;58851;42.984;20.336;2022-09-12T10:03:32;486.70;2380.80
55331;DHT22;58851;42.984;20.336;2022-09-12T10:06:01;487.20;2380.80
55331;DHT22;58851;42.984;20.336;2022-09-12T10:08:32;487.30;2380.80
55331;DHT22;58851;42.984;20.336;2022-09-12T10:11:04;487.30;2380.80
55331;DHT22;58851;42.984;20.336;2022-09-12T10:16:28;487.30;2380.80
55331;DHT22;58851;42.984;20.336;2022-09-12T10:18:56;512.00;2380.80
55331;DHT22;58851;42.984;20.336;2022-09-12T10:21:40;487.00;2380.80
55331;DHT22;58851;42.984;20.336;2022-09-12T10:29:33;486.70;2380.80
55331;DHT22;58851;42.984;20.336;2022-09-12T10:32:02;486.90;2380.80
55331;DHT22;58851;42.984;20.336;2022-09-12T10:37:07;512.00;2380.80
55331;DHT22;58851;42.984;20.336;2022-09-12T10:39:36;512.30;2380.80
55331;DHT22;58851;42.984;20.336;2022-09-12T10:42:04;512.50;2380.80
55331;DHT22;58851;42.984;20.336;2022-09-12T10:44:34;512.50;2380.80
55331;DHT22;58851;42.984;20.336;2022-09-12T10:47:19;512.60;2380.80
55331;DHT22;58851;42.984;20.336;2022-09-12T10:49:45;512.70;2380.80
55331;DHT22;58851;42.984;20.336;2022-09-12T10:52:22;512.50;2380.80
55331;DHT22;58851;42.984;20.336;2022-09-12T10:54:51;512.60;2380.80
55331;DHT22;58851;42.984;20.336;2022-09-12T11:00:16;512.20;2380.80
55331;DHT22;58851;42.984;20.336;2022-09-12T11:08:53;512.20;2380.80
55331;DHT22;58851;42.984;20.336;2022-09-12T11:14:41;512.60;2380.80
55331;DHT22;58851;42.984;20.336;2022-09-12T11:20:20;512.90;2380.80
55331;DHT22;58851;42.984;20.336;2022-09-12T11:33:50;512.50;2380.80
55331;DHT22;58851;42.984;20.336;2022-09-12T11:37:11;512.30;2252.80
55331;DHT22;58851;42.984;20.336;2022-09-12T11:39:22;512.20;2380.80
55331;DHT22;58851;42.984;20.336;2022-09-12T11:41:57;512.00;2380.80
55331;DHT22;58851;42.984;20.336;2022-09-12T11:44:44;487.10;2380.80
55331;DHT22;58851;42.984;20.336;2022-09-12T11:47:12;487.20;2380.80
55331;DHT22;58851;42.984;20.336;2022-09-12T11:52:14;512.10;2380.80
55331;DHT22;58851;42.984;20.336;2022-09-12T11:55:01;512.30;2380.80
55331;DHT22;58851;42.984;20.336;2022-09-12T12:02:58;537.70;2406.40
55331;DHT22;58851;42.984;20.336;2022-09-12T12:05:28;537.80;2406.40
55331;DHT22;58851;42.984;20.336;2022-09-12T12:07:57;537.80;2406.40
55331;DHT22;58851;42.984;20.336;2022-09-12T12:10:41;537.60;2406.40
55331;DHT22;58851;42.984;20.336;2022-09-12T12:13:30;537.60;2124.80
55331;DHT22;58851;42.984;20.336;2022-09-12T12:16:30;537.60;2406.40
55331;DHT22;58851;42.984;20.336;2022-09-12T12:18:59;537.80;2406.40
55331;DHT22;58851;42.984;20.336;2022-09-12T12:34:42;537.80;2406.40
55331;DHT22;58851;42.984;20.336;2022-09-12T12:45:02;538.20;2406.40
55331;DHT22;58851;42.984;20.336;2022-09-12T12:52:56;538.50;2406.40
55331;DHT22;58851;42.984;20.336;2022-09-12T12:57:55;563.30;2201.60
55331;DHT22;58851;42.984;20.336;2022-09-12T13:00:26;538.50;2406.40
55331;DHT22;58851;42.984;20.336;2022-09-12T13:05:37;563.60;2432.00
55331;DHT22;58851;42.984;20.336;2022-09-12T13:08:57;588.80;2432.00
55331;DHT22;58851;42.984;20.336;2022-09-12T13:11:26;564.10;2432.00
55331;DHT22;58851;42.984;20.336;2022-09-12T13:16:59;563.90;2432.00
55331;DHT22;58851;42.984;20.336;2022-09-12T13:19:32;563.30;2432.00
55331;DHT22;58851;42.984;20.336;2022-09-12T13:24:27;538.10;2406.40
55331;DHT22;58851;42.984;20.336;2022-09-12T13:26:53;538.10;2406.40
55331;DHT22;58851;42.984;20.336;2022-09-12T13:29:21;538.10;2406.40
55331;DHT22;58851;42.984;20.336;2022-09-12T13:31:54;538.00;2406.40
55331;DHT22;58851;42.984;20.336;2022-09-12T13:39:46;538.00;2406.40
55331;DHT22;58851;42.984;20.336;2022-09-12T13:42:41;538.00;2406.40
55331;DHT22;58851;42.984;20.336;2022-09-12T13:45:24;537.60;2406.40
55331;DHT22;58851;42.984;20.336;2022-09-12T13:48:00;537.60;2406.40
55331;DHT22;58851;42.984;20.336;2022-09-12T13:50:29;537.60;2406.40
55331;DHT22;58851;42.984;20.336;2022-09-12T13:52:58;563.20;2432.00
55331;DHT22;58851;42.984;20.336;2022-09-12T13:55:46;589.10;2432.00
55331;DHT22;58851;42.984;20.336;2022-09-12T13:58:20;614.70;2432.00
55331;DHT22;58851;42.984;20.336;2022-09-12T14:00:58;640.10;742.40
55331;DHT22;58851;42.984;20.336;2022-09-12T14:03:33;615.20;2201.60
55331;DHT22;58851;42.984;20.336;2022-09-12T14:06:18;614.80;2432.00
55331;DHT22;58851;42.984;20.336;2022-09-12T14:08:47;589.30;2432.00
55331;DHT22;58851;42.984;20.336;2022-09-12T14:11:32;563.70;2432.00
55331;DHT22;58851;42.984;20.336;2022-09-12T14:13:58;563.70;2432.00
55331;DHT22;58851;42.984;20.336;2022-09-12T14:16:26;563.90;2432.00
55331;DHT22;58851;42.984;20.336;2022-09-12T14:18:53;614.90;2432.00
55331;DHT22;58851;42.984;20.336;2022-09-12T14:21:34;665.60;230.40
55331;DHT22;58851;42.984;20.336;2022-09-12T14:24:02;640.20;256.00
55331;DHT22;58851;42.984;20.336;2022-09-12T14:26:33;614.70;768.00
55331;DHT22;58851;42.984;20.336;2022-09-12T14:29:01;589.60;1510.40
55331;DHT22;58851;42.984;20.336;2022-09-12T14:31:31;640.20;691.20
55331;DHT22;58851;42.984;20.336;2022-09-12T14:34:13;640.90;128.00
55331;DHT22;58851;42.984;20.336;2022-09-12T14:36:45;640.70;128.00
55331;DHT22;58851;42.984;20.336;2022-09-12T14:39:37;615.10;128.00
55331;DHT22;58851;42.984;20.336;2022-09-12T14:42:13;615.30;128.00
55331;DHT22;58851;42.984;20.336;2022-09-12T14:44:48;665.80;153.60
55331;DHT22;58851;42.984;20.336;2022-09-12T14:47:22;691.90;153.60
55331;DHT22;58851;42.984;20.336;2022-09-12T14:49:49;717.20;179.20
55331;DHT22;58851;42.984;20.336;2022-09-12T14:52:28;717.50;179.20
55331;DHT22;58851;42.984;20.336;2022-09-12T14:55:18;742.40;204.80
55331;DHT22;58851;42.984;20.336;2022-09-12T14:57:45;717.40;179.20
55331;DHT22;58851;42.984;20.336;2022-09-12T15:02:42;742.70;204.80
55331;DHT22;58851;42.984;20.336;2022-09-12T15:07:37;768.30;204.80
55331;DHT22;58851;42.984;20.336;2022-09-12T15:10:34;768.10;819.20
55331;DHT22;58851;42.984;20.336;2022-09-12T15:15:50;691.70;153.60
55331;DHT22;58851;42.984;20.336;2022-09-12T15:18:17;666.10;153.60
55331;DHT22;58851;42.984;20.336;2022-09-12T15:20:45;640.40;128.00
55331;DHT22;58851;42.984;20.336;2022-09-12T15:26:03;614.40;128.00
55331;DHT22;58851;42.984;20.336;2022-09-12T15:28:30;589.30;128.00
55331;DHT22;58851;42.984;20.336;2022-09-12T15:30:57;588.80;307.20
55331;DHT22;58851;42.984;20.336;2022-09-12T15:33:24;588.80;1612.80
55331;DHT22;58851;42.984;20.336;2022-09-12T15:35:51;588.80;1459.20
55331;DHT22;58851;42.984;20.336;2022-09-12T15:38:18;564.00;1587.20
55331;DHT22;58851;42.984;20.336;2022-09-12T15:40:44;564.10;1126.40
55331;DHT22;58851;42.984;20.336;2022-09-12T15:43:17;563.80;1459.20
55331;DHT22;58851;42.984;20.336;2022-09-12T15:45:43;563.40;1817.60
55331;DHT22;58851;42.984;20.336;2022-09-12T15:48:09;563.20;2432.00
55331;DHT22;58851;42.984;20.336;2022-09-12T15:50:35;538.50;2406.40
55331;DHT22;58851;42.984;20.336;2022-09-12T15:53:01;538.40;2406.40
55331;DHT22;58851;42.984;20.336;2022-09-12T15:55:29;538.20;2406.40
55331;DHT22;58851;42.984;20.336;2022-09-12T15:57:57;538.10;2406.40
55331;DHT22;58851;42.984;20.336;2022-09-12T16:00:24;537.80;2406.40
55331;DHT22;58851;42.984;20.336;2022-09-12T16:02:52;512.90;2380.80
55331;DHT22;58851;42.984;20.336;2022-09-12T16:05:24;512.60;2380.80
55331;DHT22;58851;42.984;20.336;2022-09-12T16:07:51;512.60;2380.80
55331;DHT22;58851;42.984;20.336;2022-09-12T16:10:21;512.60;2380.80
55331;DHT22;58851;42.984;20.336;2022-09-12T16:12:47;512.40;2380.80
55331;DHT22;58851;42.984;20.336;2022-09-12T16:15:19;512.10;2380.80
55331;DHT22;58851;42.984;20.336;2022-09-12T16:17:45;487.20;2380.80
55331;DHT22;58851;42.984;20.336;2022-09-12T16:20:11;487.10;2380.80
55331;DHT22;58851;42.984;20.336;2022-09-12T16:22:38;486.90;2329.60
55331;DHT22;58851;42.984;20.336;2022-09-12T16:25:04;486.80;2380.80
55331;DHT22;58851;42.984;20.336;2022-09-12T16:27:31;486.80;2380.80
55331;DHT22;58851;42.984;20.336;2022-09-12T16:29:57;486.90;2380.80
55331;DHT22;58851;42.984;20.336;2022-09-12T16:32:23;486.70;2380.80
55331;DHT22;58851;42.984;20.336;2022-09-12T16:34:49;486.50;2380.80
55331;DHT22;58851;42.984;20.336;2022-09-12T16:37:16;486.50;2380.80
55331;DHT22;58851;42.984;20.336;2022-09-12T16:39:42;486.50;2380.80
55331;DHT22;58851;42.984;20.336;2022-09-12T16:42:08;486.40;2380.80
55331;DHT22;58851;42.984;20.336;2022-09-12T16:44:33;486.40;2380.80
55331;DHT22;58851;42.984;20.336;2022-09-12T16:46:59;461.60;2380.80
55331;DHT22;58851;42.984;20.336;2022-09-12T16:49:25;461.50;2380.80
55331;DHT22;58851;42.984;20.336;2022-09-12T16:51:51;461.40;2380.80
55331;DHT22;58851;42.984;20.336;2022-09-12T16:54:17;461.30;2380.80
55331;DHT22;58851;42.984;20.336;2022-09-12T16:56:43;461.30;2380.80
55331;DHT22;58851;42.984;20.336;2022-09-12T16:59:09;461.10;2380.80
55331;DHT22;58851;42.984;20.336;2022-09-12T17:01:38;461.10;2380.80
55331;DHT22;58851;42.984;20.336;2022-09-12T17:04:04;460.90;2380.80
55331;DHT22;58851;42.984;20.336;2022-09-12T17:06:32;460.90;2380.80
55331;DHT22;58851;42.984;20.336;2022-09-12T17:09:00;460.80;2380.80
55331;DHT22;58851;42.984;20.336;2022-09-12T17:11:28;436.10;2124.80
55331;DHT22;58851;42.984;20.336;2022-09-12T17:13:58;436.10;2329.60
55331;DHT22;58851;42.984;20.336;2022-09-12T17:16:25;435.70;2355.20
55331;DHT22;58851;42.984;20.336;2022-09-12T17:18:52;435.70;2355.20
55331;DHT22;58851;42.984;20.336;2022-09-12T17:21:19;435.70;2355.20
55331;DHT22;58851;42.984;20.336;2022-09-12T17:23:45;435.70;2355.20
55331;DHT22;58851;42.984;20.336;2022-09-12T17:26:11;435.70;2355.20
55331;DHT22;58851;42.984;20.336;2022-09-12T17:28:38;435.70;2355.20
55331;DHT22;58851;42.984;20.336;2022-09-12T17:31:09;435.50;2355.20
55331;DHT22;58851;42.984;20.336;2022-09-12T17:33:35;435.40;2355.20
55331;DHT22;58851;42.984;20.336;2022-09-12T17:36:02;435.30;2355.20
55331;DHT22;58851;42.984;20.336;2022-09-12T17:38:31;435.30;2355.20
55331;DHT22;58851;42.984;20.336;2022-09-12T17:41:28;435.20;2355.20
55331;DHT22;58851;42.984;20.336;2022-09-12T17:43:57;410.50;2355.20